createdAt,value
2022-12-18T00:01:33.064Z,-0.26
2022-12-18T00:04:54.974Z,-0.19
2022-12-18T00:08:09.926Z,-0.27
2022-12-18T00:11:27.946Z,-0.24
2022-12-18T00:14:29.697Z,-0.21
2022-12-18T00:17:44.038Z,-0.15
2022-12-18T00:20:45.849Z,-0.12
2022-12-18T00:24:01.011Z,-0.20
2022-12-18T00:27:09.936Z,-0.20
2022-12-18T00:30:24.933Z,-0.20
2022-12-18T00:33:26.725Z,-0.27
2022-12-18T00:36:42.958Z,-0.37
2022-12-18T00:39:44.753Z,-0.21
2022-12-18T00:42:59.933Z,-0.21
2022-12-18T00:46:01.994Z,-0.27
2022-12-18T00:49:21.065Z,-0.19
2022-12-18T00:52:22.961Z,-0.28
2022-12-18T00:55:39.069Z,-0.36
2022-12-18T00:58:47.591Z,-0.18
2022-12-18T01:02:02.074Z,-0.38
2022-12-18T01:05:17.430Z,-0.37
2022-12-18T01:08:31.989Z,-0.28
2022-12-18T01:11:33.876Z,-0.26
2022-12-18T01:14:48.958Z,-0.26
2022-12-18T01:18:00.120Z,-0.32
2022-12-18T01:21:10.230Z,-0.27
2022-12-18T01:24:24.964Z,-0.38
2022-12-18T01:27:41.969Z,-0.34
2022-12-18T01:30:51.094Z,-0.27
2022-12-18T01:34:00.938Z,-0.28
2022-12-18T01:37:09.726Z,-0.23
2022-12-18T01:40:17.984Z,-0.25
2022-12-18T01:43:46.477Z,-0.38
2022-12-18T01:46:55.025Z,-0.28
2022-12-18T01:50:22.082Z,-0.34
2022-12-18T01:53:30.778Z,-0.34
2022-12-18T01:56:45.998Z,-0.28
2022-12-18T01:59:53.088Z,-0.35
2022-12-18T02:03:08.056Z,-0.42
2022-12-18T02:06:30.373Z,-0.43
2022-12-18T02:09:58.073Z,-0.43
2022-12-18T02:13:23.978Z,-0.35
2022-12-18T02:16:39.773Z,-0.32
2022-12-18T02:20:16.037Z,-0.44
2022-12-18T02:23:57.758Z,-0.43
2022-12-18T02:27:15.005Z,-0.23
2022-12-18T02:30:25.087Z,-0.18
2022-12-18T02:33:37.100Z,-0.11
2022-12-18T02:36:50.001Z,-0.16
2022-12-18T02:40:07.983Z,-0.19
2022-12-18T02:43:13.602Z,-0.32
2022-12-18T02:46:39.010Z,-0.37
2022-12-18T02:50:27.057Z,-0.27
2022-12-18T02:53:53.053Z,-0.28
2022-12-18T02:57:05.057Z,-0.28
2022-12-18T03:00:43.038Z,-0.21
2022-12-18T03:03:56.278Z,-0.24
2022-12-18T03:07:26.065Z,-0.22
2022-12-18T03:10:40.226Z,-0.24
2022-12-18T03:14:00.023Z,-0.29
2022-12-18T03:17:14.629Z,-0.27
2022-12-18T03:20:28.069Z,-0.24
2022-12-18T03:23:50.027Z,-0.17
2022-12-18T03:27:02.053Z,-0.14
2022-12-18T03:30:13.485Z,-0.15
2022-12-18T03:33:29.058Z,-0.14
2022-12-18T03:36:37.698Z,-0.13
2022-12-18T03:39:46.017Z,-0.14
2022-12-18T03:43:04.326Z,-0.12
2022-12-18T03:46:31.167Z,-0.21
2022-12-18T03:49:52.903Z,-0.16
2022-12-18T03:53:11.025Z,-0.12
2022-12-18T03:56:28.058Z,-0.08
2022-12-18T03:59:38.001Z,-0.23
2022-12-18T04:02:59.122Z,-0.22
2022-12-18T04:06:02.705Z,-0.38
2022-12-18T04:09:18.085Z,-0.36
2022-12-18T04:12:19.955Z,-0.32
2022-12-18T04:15:35.114Z,-0.28
2022-12-18T04:18:37.393Z,-0.32
2022-12-18T04:21:52.079Z,-0.27
2022-12-18T04:25:00.011Z,-0.23
2022-12-18T04:28:08.890Z,-0.21
2022-12-18T04:31:17.078Z,-0.21
2022-12-18T04:34:25.726Z,-0.20
2022-12-18T04:37:34.125Z,-0.23
2022-12-18T04:40:49.053Z,-0.33
2022-12-18T04:43:50.897Z,-0.34
2022-12-18T04:47:06.066Z,-0.45
2022-12-18T04:50:15.102Z,-0.48
2022-12-18T04:53:23.605Z,-0.58
2022-12-18T04:56:32.033Z,-0.55
2022-12-18T04:59:40.677Z,-0.50
2022-12-18T05:02:49.213Z,-0.63
2022-12-18T05:06:13.129Z,-0.56
2022-12-18T05:09:15.004Z,-0.59
2022-12-18T05:12:32.051Z,-0.63
2022-12-18T05:15:34.443Z,-0.65
2022-12-18T05:18:50.074Z,-0.69
2022-12-18T05:21:58.750Z,-0.63
2022-12-18T05:25:13.074Z,-0.81
2022-12-18T05:28:21.138Z,-0.91
2022-12-18T05:31:39.636Z,-0.78
2022-12-18T05:34:41.778Z,-0.66
2022-12-18T05:37:56.131Z,-0.52
2022-12-18T05:40:58.565Z,-0.52
2022-12-18T05:44:13.066Z,-0.60
2022-12-18T05:47:21.050Z,-0.59
2022-12-18T05:50:29.746Z,-0.49
2022-12-18T05:53:38.353Z,-0.65
2022-12-18T05:56:48.750Z,-0.61
2022-12-18T05:59:57.075Z,-0.62
2022-12-18T06:03:05.839Z,-0.67
2022-12-18T06:06:25.090Z,-0.75
2022-12-18T06:09:33.783Z,-0.73
2022-12-18T06:12:48.053Z,-0.72
2022-12-18T06:15:56.646Z,-0.71
2022-12-18T06:19:13.085Z,-0.75
2022-12-18T06:22:21.833Z,-0.74
2022-12-18T06:25:30.109Z,-0.76
2022-12-18T06:28:46.130Z,-0.74
2022-12-18T06:31:54.184Z,-0.72
2022-12-18T06:35:02.818Z,-0.71
2022-12-18T06:38:17.134Z,-0.66
2022-12-18T06:41:21.219Z,-0.64
2022-12-18T06:44:36.116Z,-0.81
2022-12-18T06:47:44.140Z,-0.85
2022-12-18T06:50:59.120Z,-0.86
2022-12-18T06:54:07.101Z,-0.83
2022-12-18T06:57:22.086Z,-0.77
2022-12-18T07:00:23.873Z,-0.84
2022-12-18T07:03:40.607Z,-1.00
2022-12-18T07:06:56.122Z,-0.92
2022-12-18T07:10:06.504Z,-0.92
2022-12-18T07:13:15.453Z,-0.87
2022-12-18T07:16:25.672Z,-0.83
2022-12-18T07:19:41.135Z,-0.70
2022-12-18T07:22:54.730Z,-0.72
2022-12-18T07:26:06.161Z,-0.77
2022-12-18T07:29:21.142Z,-0.85
2022-12-18T07:32:31.236Z,-0.81
2022-12-18T07:35:41.118Z,-0.72
2022-12-18T07:38:57.144Z,-0.84
2022-12-18T07:41:59.030Z,-0.71
2022-12-18T07:45:15.223Z,-0.60
2022-12-18T07:48:23.843Z,-0.53
2022-12-18T07:51:32.122Z,-0.60
2022-12-18T07:54:41.037Z,-0.41
2022-12-18T07:57:51.860Z,-0.36
2022-12-18T08:01:07.775Z,-0.28
2022-12-18T08:04:22.175Z,-0.39
2022-12-18T08:07:44.130Z,-0.24
2022-12-18T08:10:47.179Z,-0.36
2022-12-18T08:14:03.239Z,-0.35
2022-12-18T08:17:05.041Z,-0.24
2022-12-18T08:20:21.172Z,-0.22
2022-12-18T08:23:42.064Z,-0.06
2022-12-18T08:27:06.785Z,-0.24
2022-12-18T08:30:26.305Z,-0.10
2022-12-18T08:33:28.308Z,-0.12
2022-12-18T08:36:43.109Z,-0.05
2022-12-18T08:39:45.153Z,-0.07
2022-12-18T08:43:00.131Z,0.10
2022-12-18T08:46:01.963Z,0.20
2022-12-18T08:49:18.254Z,0.15
2022-12-18T08:52:20.003Z,0.21
2022-12-18T08:55:35.134Z,0.31
2022-12-18T08:58:36.991Z,0.40
2022-12-18T09:01:53.201Z,0.44
2022-12-18T09:05:15.152Z,0.48
2022-12-18T09:08:30.268Z,0.44
2022-12-18T09:11:39.059Z,0.51
2022-12-18T09:14:47.182Z,0.54
2022-12-18T09:18:02.159Z,0.52
2022-12-18T09:21:20.469Z,0.42
2022-12-18T09:24:36.197Z,0.62
2022-12-18T09:27:38.114Z,0.76
2022-12-18T09:30:56.416Z,0.71
2022-12-18T09:34:05.293Z,0.90
2022-12-18T09:37:17.182Z,0.95
2022-12-18T09:40:28.214Z,1.05
2022-12-18T09:43:43.426Z,1.02
2022-12-18T09:46:57.154Z,1.27
2022-12-18T09:50:34.250Z,1.30
2022-12-18T09:53:58.202Z,1.41
2022-12-18T09:57:13.234Z,1.41
2022-12-18T10:00:20.979Z,1.48
2022-12-18T10:03:39.282Z,1.54
2022-12-18T10:07:23.413Z,1.48
2022-12-18T10:10:42.534Z,1.37
2022-12-18T10:14:01.174Z,1.31
2022-12-18T10:17:27.516Z,1.52
2022-12-18T10:20:52.200Z,1.70
2022-12-18T10:24:32.242Z,1.80
2022-12-18T10:27:41.491Z,1.56
2022-12-18T10:30:56.259Z,1.61
2022-12-18T10:34:04.243Z,1.79
2022-12-18T10:37:25.224Z,1.99
2022-12-18T10:40:34.217Z,2.01
2022-12-18T10:43:42.742Z,2.16
2022-12-18T10:46:54.505Z,2.29
2022-12-18T10:50:04.313Z,2.27
2022-12-18T10:53:13.192Z,2.35
2022-12-18T10:56:22.351Z,2.20
2022-12-18T10:59:31.214Z,2.21
2022-12-18T11:02:46.430Z,2.40
2022-12-18T11:06:07.783Z,2.47
2022-12-18T11:09:29.236Z,2.49
2022-12-18T11:12:37.256Z,2.44
2022-12-18T11:15:46.439Z,2.63
2022-12-18T11:18:55.401Z,2.73
2022-12-18T11:22:21.550Z,2.77
2022-12-18T11:25:37.241Z,2.75
2022-12-18T11:29:14.459Z,2.88
2022-12-18T11:32:38.114Z,2.88
2022-12-18T11:36:12.215Z,2.77
2022-12-18T11:39:30.213Z,2.88
2022-12-18T11:42:55.226Z,2.87
2022-12-18T11:46:12.415Z,2.90
2022-12-18T11:49:34.385Z,3.06
2022-12-18T11:52:55.982Z,3.00
2022-12-18T11:56:19.707Z,3.04
2022-12-18T11:59:48.311Z,3.05
2022-12-18T12:03:16.372Z,3.11
2022-12-18T12:06:51.538Z,3.07
2022-12-18T12:10:31.297Z,3.26
2022-12-18T12:14:04.478Z,3.23
2022-12-18T12:17:33.242Z,3.27
2022-12-18T12:21:00.250Z,3.31
2022-12-18T12:24:39.696Z,3.36
2022-12-18T12:28:09.309Z,3.30
2022-12-18T12:31:35.027Z,3.36
2022-12-18T12:35:19.304Z,3.34
2022-12-18T12:38:28.166Z,3.41
2022-12-18T12:41:45.229Z,3.52
2022-12-18T12:45:00.291Z,3.60
2022-12-18T12:48:19.075Z,3.51
2022-12-18T12:51:34.295Z,3.43
2022-12-18T12:54:51.278Z,3.49
2022-12-18T12:58:16.406Z,3.51
2022-12-18T13:01:48.429Z,3.48
2022-12-18T13:05:05.538Z,3.44
2022-12-18T13:08:35.945Z,3.44
2022-12-18T13:11:43.386Z,3.51
2022-12-18T13:14:58.290Z,3.48
2022-12-18T13:18:24.322Z,3.49
2022-12-18T13:21:30.066Z,3.44
2022-12-18T13:24:45.302Z,3.38
2022-12-18T13:28:06.142Z,3.40
2022-12-18T13:32:01.359Z,3.29
2022-12-18T13:35:23.093Z,3.37
2022-12-18T13:38:42.322Z,3.29
2022-12-18T13:41:46.754Z,3.30
2022-12-18T13:45:01.383Z,3.26
2022-12-18T13:48:17.619Z,3.17
2022-12-18T13:51:28.258Z,3.18
2022-12-18T13:54:47.274Z,3.12
2022-12-18T13:57:49.241Z,3.10
2022-12-18T14:01:04.399Z,3.10
2022-12-18T14:04:11.151Z,3.11
2022-12-18T14:07:41.857Z,3.10
2022-12-18T14:10:58.302Z,3.06
2022-12-18T14:14:08.139Z,3.03
2022-12-18T14:17:23.293Z,3.03
2022-12-18T14:20:33.931Z,2.93
2022-12-18T14:23:47.282Z,3.01
2022-12-18T14:27:14.074Z,2.96
2022-12-18T14:30:35.318Z,2.93
2022-12-18T14:33:50.286Z,2.90
2022-12-18T14:37:00.449Z,2.84
2022-12-18T14:40:20.269Z,2.83
2022-12-18T14:43:32.273Z,2.84
2022-12-18T14:46:44.346Z,2.78
2022-12-18T14:49:59.305Z,2.79
2022-12-18T14:53:07.354Z,2.73
2022-12-18T14:56:27.303Z,2.65
2022-12-18T14:59:30.562Z,2.63
2022-12-18T15:02:45.542Z,2.65
2022-12-18T15:05:48.211Z,2.66
2022-12-18T15:09:28.462Z,2.64
2022-12-18T15:12:55.387Z,2.60
2022-12-18T15:16:10.378Z,2.58
2022-12-18T15:19:18.469Z,2.51
2022-12-18T15:22:31.000Z,2.49
2022-12-18T15:25:45.479Z,2.48
2022-12-18T15:28:57.600Z,2.48
2022-12-18T15:32:20.434Z,2.49
2022-12-18T15:35:32.353Z,2.42
2022-12-18T15:38:41.347Z,2.39
2022-12-18T15:41:50.451Z,2.40
2022-12-18T15:44:59.001Z,2.34
2022-12-18T15:48:07.414Z,2.23
2022-12-18T15:51:30.411Z,2.29
2022-12-18T15:54:39.020Z,2.28
2022-12-18T15:57:53.357Z,2.25
2022-12-18T16:00:57.222Z,2.23
2022-12-18T16:04:12.359Z,2.24
2022-12-18T16:07:30.542Z,2.19
2022-12-18T16:10:39.358Z,2.20
2022-12-18T16:13:54.363Z,2.17
2022-12-18T16:17:13.447Z,2.14
2022-12-18T16:20:18.506Z,2.07
2022-12-18T16:23:33.367Z,2.05
2022-12-18T16:26:41.350Z,1.98
2022-12-18T16:29:53.337Z,1.97
2022-12-18T16:33:02.313Z,2.01
2022-12-18T16:36:11.077Z,1.96
2022-12-18T16:39:19.337Z,1.93
2022-12-18T16:42:34.397Z,1.93
2022-12-18T16:45:42.963Z,1.95
2022-12-18T16:48:51.394Z,1.89
2022-12-18T16:52:00.245Z,1.90
2022-12-18T16:55:08.418Z,1.85
2022-12-18T16:58:17.014Z,1.80
2022-12-18T17:01:33.509Z,1.80
2022-12-18T17:04:35.381Z,1.83
2022-12-18T17:07:57.403Z,1.83
2022-12-18T17:11:16.448Z,1.77
2022-12-18T17:14:25.127Z,1.80
2022-12-18T17:17:33.390Z,1.77
2022-12-18T17:20:42.590Z,1.76
2022-12-18T17:23:57.373Z,1.69
2022-12-18T17:27:05.430Z,1.71
2022-12-18T17:30:20.426Z,1.66
2022-12-18T17:33:23.742Z,1.58
2022-12-18T17:36:39.394Z,1.64
2022-12-18T17:39:47.914Z,1.58
2022-12-18T17:42:59.406Z,1.59
2022-12-18T17:46:14.471Z,1.59
2022-12-18T17:49:23.338Z,1.51
2022-12-18T17:52:31.403Z,1.50
2022-12-18T17:55:40.055Z,1.55
2022-12-18T17:58:55.461Z,1.52
2022-12-18T18:02:10.587Z,1.53
2022-12-18T18:05:19.390Z,1.52
2022-12-18T18:08:42.457Z,1.44
2022-12-18T18:11:52.407Z,1.42
2022-12-18T18:15:09.468Z,1.47
2022-12-18T18:18:18.043Z,1.43
2022-12-18T18:21:35.460Z,1.39
2022-12-18T18:24:45.513Z,1.35
2022-12-18T18:28:02.430Z,1.32
2022-12-18T18:31:06.618Z,1.31
2022-12-18T18:34:25.427Z,1.30
2022-12-18T18:37:27.197Z,1.22
2022-12-18T18:40:42.390Z,1.20
2022-12-18T18:43:44.693Z,1.23
2022-12-18T18:47:03.594Z,1.26
2022-12-18T18:50:21.418Z,1.19
2022-12-18T18:53:23.509Z,1.19
2022-12-18T18:57:40.096Z,1.18
2022-12-18T19:00:01.194Z,1.18
2022-12-18T19:03:16.438Z,1.30
2022-12-18T19:06:22.282Z,1.24
2022-12-18T19:09:44.398Z,1.23
2022-12-18T19:12:53.102Z,1.19
2022-12-18T19:16:09.530Z,1.28
2022-12-18T19:19:18.390Z,1.26
2022-12-18T19:22:27.843Z,1.26
2022-12-18T19:25:45.519Z,1.27
2022-12-18T19:28:54.061Z,1.24
2022-12-18T19:32:03.473Z,1.26
2022-12-18T19:35:12.026Z,1.36
2022-12-18T19:38:20.434Z,1.19
2022-12-18T19:41:37.680Z,1.08
2022-12-18T19:44:53.580Z,0.99
2022-12-18T19:48:06.541Z,0.88
2022-12-18T19:51:25.460Z,0.85
2022-12-18T19:54:33.418Z,0.85
2022-12-18T19:57:48.535Z,0.82
2022-12-18T20:00:50.300Z,0.86
2022-12-18T20:04:06.507Z,0.87
2022-12-18T20:07:14.735Z,0.81
2022-12-18T20:10:29.478Z,0.71
2022-12-18T20:13:31.252Z,0.83
2022-12-18T20:16:47.576Z,0.75
2022-12-18T20:19:49.508Z,0.72
2022-12-18T20:23:04.428Z,0.73
2022-12-18T20:26:06.258Z,0.69
2022-12-18T20:29:24.570Z,0.64
2022-12-18T20:32:39.511Z,0.59
2022-12-18T20:35:48.123Z,0.57
2022-12-18T20:39:00.438Z,0.55
2022-12-18T20:42:16.466Z,0.51
2022-12-18T20:45:25.117Z,0.55
2022-12-18T20:48:34.454Z,0.52
2022-12-18T20:51:43.486Z,0.52
2022-12-18T20:54:51.501Z,0.52
2022-12-18T20:58:00.442Z,0.48
2022-12-18T21:01:15.834Z,0.50
2022-12-18T21:04:30.498Z,0.49
2022-12-18T21:07:38.911Z,0.46
2022-12-18T21:10:53.445Z,0.46
2022-12-18T21:13:57.501Z,0.38
2022-12-18T21:17:12.658Z,0.33
2022-12-18T21:20:22.478Z,0.34
2022-12-18T21:23:31.183Z,0.36
2022-12-18T21:26:46.481Z,0.34
2022-12-18T21:29:48.659Z,0.42
2022-12-18T21:33:05.623Z,0.37
2022-12-18T21:36:07.917Z,0.41
2022-12-18T21:39:23.561Z,0.42
2022-12-18T21:42:25.709Z,0.50
2022-12-18T21:45:40.537Z,0.42
2022-12-18T21:48:42.506Z,0.48
2022-12-18T21:52:02.534Z,0.39
2022-12-18T21:55:11.535Z,0.28
2022-12-18T21:58:20.049Z,0.26
2022-12-18T22:01:33.419Z,0.23
2022-12-18T22:04:46.705Z,0.18
2022-12-18T22:07:55.553Z,0.14
2022-12-18T22:11:04.467Z,0.06
2022-12-18T22:14:13.495Z,-0.16
2022-12-18T22:17:28.498Z,-0.17
2022-12-18T22:20:38.286Z,-0.19
2022-12-18T22:24:00.482Z,-0.21
2022-12-18T22:27:02.630Z,-0.25
2022-12-18T22:30:18.965Z,-0.26
2022-12-18T22:33:20.935Z,-0.24
2022-12-18T22:36:45.657Z,-0.26
2022-12-18T22:39:47.635Z,-0.27
2022-12-18T22:43:02.803Z,-0.34
2022-12-18T22:46:16.145Z,-0.37
2022-12-18T22:49:32.514Z,-0.36
2022-12-18T22:52:49.621Z,-0.40
2022-12-18T22:55:57.490Z,-0.41
2022-12-18T22:59:13.588Z,-0.53
2022-12-18T23:02:15.510Z,-0.54
2022-12-18T23:05:30.654Z,-0.60
2022-12-18T23:08:39.052Z,-0.59
2022-12-18T23:11:54.546Z,-0.58
2022-12-18T23:14:56.486Z,-0.63
2022-12-18T23:18:11.552Z,-0.61
2022-12-18T23:21:22.538Z,-0.64
2022-12-18T23:24:37.547Z,-0.69
2022-12-18T23:27:45.547Z,-0.72
2022-12-18T23:31:09.532Z,-0.73
2022-12-18T23:34:27.569Z,-0.82
2022-12-18T23:37:58.643Z,-0.84
2022-12-18T23:41:04.626Z,-0.86
2022-12-18T23:44:20.569Z,-0.89
2022-12-18T23:47:22.373Z,-0.92
2022-12-18T23:50:40.515Z,-1.01
2022-12-18T23:53:43.075Z,-1.02
2022-12-18T23:56:57.513Z,-0.99
2022-12-18T23:59:59.535Z,-0.94
